Time,TemperatureF,DewpointF,PressureIn,WindDirection,WindDirectionDegrees,WindSpeedMPH,WindSpeedGustMPH,Humidity,HourlyPrecipIn,Conditions,Clouds,dailyrainin,SoftwareType,DateUTC
2013-02-19 00:12:00,41.0,25.0,30.22,SW,225,1.0,9.0,53,0.00,,,0.00,weatherlink.com 1.10,2013-02-19 05:12:00,
2013-02-19 00:27:00,40.6,25.0,30.22,SW,233,3.0,7.0,54,0.00,,,0.00,weatherlink.com 1.10,2013-02-19 05:27:00,
2013-02-19 00:42:00,40.2,25.0,30.22,SSE,162,1.0,6.0,55,0.00,,,0.00,weatherlink.com 1.10,2013-02-19 05:42:00,
2013-02-19 00:57:00,39.9,25.0,30.22,SW,228,1.0,6.0,56,0.00,,,0.00,weatherlink.com 1.10,2013-02-19 05:57:00,
2013-02-19 01:12:00,39.6,25.0,30.20,SW,232,3.0,4.0,57,0.00,,,0.00,weatherlink.com 1.10,2013-02-19 06:12:00,
2013-02-19 01:27:00,39.3,25.0,30.20,WSW,242,3.0,5.0,57,0.00,,,0.00,weatherlink.com 1.10,2013-02-19 06:27:00,
2013-02-19 01:42:00,39.1,25.0,30.20,SW,232,4.0,6.0,58,0.00,,,0.00,weatherlink.com 1.10,2013-02-19 06:42:00,
2013-02-19 01:57:00,38.8,26.0,30.20,SW,219,4.0,8.0,60,0.00,,,0.00,weatherlink.com 1.10,2013-02-19 06:57:00,
2013-02-19 02:12:00,38.4,25.0,30.18,SSW,201,1.0,6.0,60,0.00,,,0.00,weatherlink.com 1.10,2013-02-19 07:12:00,
2013-02-19 02:27:00,38.0,25.0,30.17,SW,226,0.0,5.0,60,0.00,,,0.00,weatherlink.com 1.10,2013-02-19 07:27:00,
2013-02-19 02:42:00,38.0,25.0,30.16,SSE,151,2.0,7.0,60,0.00,,,0.00,weatherlink.com 1.10,2013-02-19 07:42:00,
2013-02-19 02:57:00,38.0,25.0,30.14,SW,214,2.0,4.0,60,0.00,,,0.00,weatherlink.com 1.10,2013-02-19 07:57:00,
2013-02-19 03:12:00,38.1,25.0,30.14,SW,226,1.0,7.0,59,0.00,,,0.00,weatherlink.com 1.10,2013-02-19 08:12:00,
2013-02-19 03:27:00,37.7,24.0,30.13,South,186,1.0,7.0,59,0.00,,,0.00,weatherlink.com 1.10,2013-02-19 08:27:00,
2013-02-19 03:43:00,37.4,24.0,30.14,SW,233,4.0,6.0,60,0.00,,,0.00,weatherlink.com 1.10,2013-02-19 08:43:00,
2013-02-19 03:58:00,37.2,24.0,30.14,SW,217,1.0,3.0,60,0.00,,,0.00,weatherlink.com 1.10,2013-02-19 08:58:00,
2013-02-19 04:13:00,36.9,24.0,30.11,SW,231,1.0,3.0,61,0.00,,,0.00,weatherlink.com 1.10,2013-02-19 09:13:00,
2013-02-19 04:28:00,37.0,25.0,30.11,SW,219,1.0,3.0,62,0.00,,,0.00,weatherlink.com 1.10,2013-02-19 09:28:00,
2013-02-19 04:43:00,36.7,25.0,30.12,SW,226,0.0,2.0,63,0.00,,,0.00,weatherlink.com 1.10,2013-02-19 09:43:00,
2013-02-19 04:58:00,36.7,25.0,30.12,SW,225,1.0,2.0,63,0.00,,,0.00,weatherlink.com 1.10,2013-02-19 09:58:00,
2013-02-19 05:13:00,36.9,25.0,30.11,SW,224,0.0,2.0,63,0.00,,,0.00,weatherlink.com 1.10,2013-02-19 10:13:00,
2013-02-19 05:28:00,36.9,25.0,30.11,SW,226,0.0,1.0,63,0.00,,,0.00,weatherlink.com 1.10,2013-02-19 10:28:00,
2013-02-19 05:43:00,36.9,26.0,30.11,SSW,196,0.0,1.0,64,0.00,,,0.00,weatherlink.com 1.10,2013-02-19 10:43:00,
2013-02-19 05:58:00,37.1,26.0,30.11,West,263,0.0,1.0,64,0.00,,,0.00,weatherlink.com 1.10,2013-02-19 10:58:00,
2013-02-19 06:13:00,36.9,26.0,30.11,SW,226,0.0,2.0,65,0.00,,,0.00,weatherlink.com 1.10,2013-02-19 11:13:00,
2013-02-19 06:28:00,37.1,27.0,30.11,SW,233,0.0,1.0,66,0.00,,,0.00,weatherlink.com 1.10,2013-02-19 11:28:00,
2013-02-19 06:43:00,37.9,27.0,30.10,NNW,338,0.0,1.0,66,0.00,,,0.00,weatherlink.com 1.10,2013-02-19 11:43:00,
2013-02-19 06:58:00,37.8,27.0,30.10,SSW,207,0.0,0.0,64,0.00,,,0.00,weatherlink.com 1.10,2013-02-19 11:58:00,
2013-02-19 07:13:00,37.4,27.0,30.10,South,184,0.0,1.0,65,0.00,,,0.00,weatherlink.com 1.10,2013-02-19 12:13:00,
2013-02-19 07:28:00,37.5,27.0,30.09,SW,219,0.0,1.0,65,0.00,,,0.00,weatherlink.com 1.10,2013-02-19 12:28:00,
2013-02-19 07:43:00,37.5,27.0,30.09,SSE,154,0.0,1.0,66,0.00,,,0.00,weatherlink.com 1.10,2013-02-19 12:43:00,
2013-02-19 07:58:00,37.5,28.0,30.10,West,269,0.0,2.0,69,0.00,,,0.00,weatherlink.com 1.10,2013-02-19 12:58:00,
2013-02-19 08:13:00,36.7,30.0,30.10,SW,228,0.0,1.0,78,0.02,,,0.02,weatherlink.com 1.10,2013-02-19 13:13:00,
2013-02-19 08:28:00,36.0,31.0,30.10,SSW,203,0.0,1.0,83,0.05,,,0.05,weatherlink.com 1.10,2013-02-19 13:28:00,
2013-02-19 08:43:00,37.1,33.0,30.08,SSE,150,0.0,1.0,84,0.08,,,0.08,weatherlink.com 1.10,2013-02-19 13:43:00,
2013-02-19 08:58:00,36.1,32.0,30.07,SSE,158,1.0,1.0,86,0.11,,,0.11,weatherlink.com 1.10,2013-02-19 13:58:00,
2013-02-19 09:13:00,35.9,33.0,30.08,West,263,3.0,3.0,88,0.10,,,0.12,weatherlink.com 1.10,2013-02-19 14:13:00,
2013-02-19 09:28:00,36.0,33.0,30.06,SSE,152,1.0,4.0,90,0.07,,,0.12,weatherlink.com 1.10,2013-02-19 14:28:00,
2013-02-19 09:43:00,36.5,34.0,30.05,SW,235,1.0,2.0,91,0.05,,,0.13,weatherlink.com 1.10,2013-02-19 14:43:00,
2013-02-19 09:58:00,36.7,34.0,30.04,SW,235,2.0,3.0,91,0.03,,,0.14,weatherlink.com 1.10,2013-02-19 14:58:00,
2013-02-19 10:13:00,37.0,35.0,30.03,SW,225,2.0,4.0,92,0.02,,,0.14,weatherlink.com 1.10,2013-02-19 15:13:00,
2013-02-19 10:28:00,37.8,36.0,30.02,SE,134,2.0,5.0,92,0.03,,,0.15,weatherlink.com 1.10,2013-02-19 15:28:00,
2013-02-19 10:43:00,38.3,36.0,30.01,SW,222,0.0,4.0,92,0.03,,,0.16,weatherlink.com 1.10,2013-02-19 15:43:00,
2013-02-19 10:58:00,38.5,37.0,30.01,SW,227,0.0,5.0,93,0.02,,,0.16,weatherlink.com 1.10,2013-02-19 15:58:00,
2013-02-19 11:13:00,38.6,37.0,30.01,NW,308,0.0,5.0,93,0.02,,,0.16,weatherlink.com 1.10,2013-02-19 16:13:00,
2013-02-19 11:28:00,38.8,37.0,30.00,SW,224,1.0,6.0,93,0.02,,,0.17,weatherlink.com 1.10,2013-02-19 16:28:00,
2013-02-19 11:43:00,39.1,37.0,29.99,SW,231,4.0,5.0,93,0.01,,,0.17,weatherlink.com 1.10,2013-02-19 16:43:00,
2013-02-19 11:58:00,39.6,38.0,29.98,South,169,2.0,4.0,94,0.01,,,0.17,weatherlink.com 1.10,2013-02-19 16:58:00,
2013-02-19 12:13:00,40.2,39.0,29.97,SW,233,4.0,5.0,94,0.01,,,0.17,weatherlink.com 1.10,2013-02-19 17:13:00,
2013-02-19 12:29:00,40.6,39.0,29.96,SW,231,0.0,7.0,93,0.00,,,0.17,weatherlink.com 1.10,2013-02-19 17:29:00,
2013-02-19 12:44:00,40.9,39.0,29.95,WSW,257,3.0,5.0,94,0.00,,,0.17,weatherlink.com 1.10,2013-02-19 17:44:00,
2013-02-19 12:59:00,41.3,40.0,29.93,WSW,250,1.0,4.0,94,0.00,,,0.17,weatherlink.com 1.10,2013-02-19 17:59:00,
2013-02-19 13:14:00,41.9,40.0,29.92,SW,233,0.0,7.0,93,0.00,,,0.17,weatherlink.com 1.10,2013-02-19 18:14:00,
2013-02-19 13:29:00,42.3,41.0,29.92,WSW,258,3.0,5.0,93,0.00,,,0.17,weatherlink.com 1.10,2013-02-19 18:29:00,
2013-02-19 13:44:00,42.7,41.0,29.91,WSW,246,3.0,5.0,93,0.00,,,0.17,weatherlink.com 1.10,2013-02-19 18:44:00,
2013-02-19 13:59:00,43.1,41.0,29.91,WNW,301,1.0,4.0,92,0.00,,,0.17,weatherlink.com 1.10,2013-02-19 18:59:00,
2013-02-19 14:14:00,43.5,41.0,29.90,SW,225,4.0,8.0,91,0.00,,,0.17,weatherlink.com 1.10,2013-02-19 19:14:00,
2013-02-19 14:29:00,43.8,41.0,29.90,SW,236,2.0,5.0,91,0.00,,,0.17,weatherlink.com 1.10,2013-02-19 19:29:00,
2013-02-19 14:44:00,44.1,41.0,29.90,West,278,2.0,6.0,90,0.00,,,0.17,weatherlink.com 1.10,2013-02-19 19:44:00,
2013-02-19 14:59:00,44.3,41.0,29.89,SW,236,1.0,8.0,89,0.00,,,0.17,weatherlink.com 1.10,2013-02-19 19:59:00,
2013-02-19 15:14:00,44.6,42.0,29.88,SW,219,2.0,5.0,89,0.00,,,0.17,weatherlink.com 1.10,2013-02-19 20:14:00,
2013-02-19 15:29:00,45.2,42.0,29.88,West,262,2.0,6.0,88,0.00,,,0.17,weatherlink.com 1.10,2013-02-19 20:29:00,
2013-02-19 15:44:00,45.6,42.0,29.88,WSW,245,1.0,4.0,87,0.00,,,0.17,weatherlink.com 1.10,2013-02-19 20:44:00,
2013-02-19 15:59:00,45.8,42.0,29.88,WSW,250,5.0,6.0,86,0.00,,,0.17,weatherlink.com 1.10,2013-02-19 20:59:00,
2013-02-19 16:14:00,46.1,42.0,29.87,SW,219,2.0,5.0,85,0.00,,,0.17,weatherlink.com 1.10,2013-02-19 21:14:00,
2013-02-19 16:29:00,46.5,42.0,29.88,SSW,198,2.0,4.0,85,0.00,,,0.17,weatherlink.com 1.10,2013-02-19 21:29:00,
2013-02-19 16:44:00,47.0,42.0,29.87,SW,233,2.0,3.0,84,0.00,,,0.17,weatherlink.com 1.10,2013-02-19 21:44:00,
2013-02-19 16:59:00,46.6,42.0,29.88,SW,225,4.0,5.0,84,0.00,,,0.17,weatherlink.com 1.10,2013-02-19 21:59:00,
2013-02-19 17:14:00,46.4,42.0,29.88,SSW,200,2.0,3.0,85,0.00,,,0.17,weatherlink.com 1.10,2013-02-19 22:14:00,
2013-02-19 17:29:00,46.9,42.0,29.89,SW,224,0.0,3.0,84,0.00,,,0.17,weatherlink.com 1.10,2013-02-19 22:29:00,
2013-02-19 17:44:00,46.5,42.0,29.90,SSW,203,0.0,2.0,85,0.00,,,0.17,weatherlink.com 1.10,2013-02-19 22:44:00,
2013-02-19 17:59:00,45.6,42.0,29.91,WSW,239,1.0,3.0,86,0.00,,,0.17,weatherlink.com 1.10,2013-02-19 22:59:00,
2013-02-19 18:14:00,44.9,41.0,29.91,SW,226,1.0,2.0,87,0.00,,,0.17,weatherlink.com 1.10,2013-02-19 23:14:00,
2013-02-19 18:29:00,44.4,41.0,29.92,SW,236,0.0,2.0,88,0.00,,,0.17,weatherlink.com 1.10,2013-02-19 23:29:00,
2013-02-19 18:44:00,43.9,41.0,29.93,WSW,248,0.0,1.0,89,0.00,,,0.17,weatherlink.com 1.10,2013-02-19 23:44:00,
2013-02-19 18:59:00,43.5,41.0,29.94,SW,232,1.0,2.0,89,0.00,,,0.17,weatherlink.com 1.10,2013-02-19 23:59:00,
2013-02-19 19:14:00,43.0,40.0,29.95,SW,235,1.0,2.0,90,0.00,,,0.17,weatherlink.com 1.10,2013-02-20 00:14:00,
2013-02-19 19:29:00,43.2,41.0,29.95,WSW,245,0.0,3.0,90,0.00,,,0.17,weatherlink.com 1.10,2013-02-20 00:29:00,
2013-02-19 19:59:00,43.6,40.0,29.95,WSW,249,2.0,5.0,87,0.00,,,0.17,weatherlink.com 1.10,2013-02-20 00:59:00,
2013-02-19 20:14:00,43.4,38.0,29.96,WSW,250,0.0,4.0,82,0.00,,,0.17,weatherlink.com 1.10,2013-02-20 01:14:00,
2013-02-19 20:29:00,45.3,28.0,29.96,West,267,4.0,9.0,51,0.00,,,0.17,weatherlink.com 1.10,2013-02-20 01:29:00,
2013-02-19 20:44:00,46.0,25.0,29.96,WSW,246,1.0,9.0,44,0.00,,,0.17,weatherlink.com 1.10,2013-02-20 01:44:00,
2013-02-19 20:59:00,46.4,24.0,29.97,WNW,283,2.0,7.0,42,0.00,,,0.17,weatherlink.com 1.10,2013-02-20 01:59:00,
2013-02-19 21:14:00,46.1,23.0,29.97,West,259,2.0,7.0,40,0.00,,,0.17,weatherlink.com 1.10,2013-02-20 02:14:00,
2013-02-19 21:29:00,45.8,21.0,29.98,WSW,250,1.0,6.0,38,0.00,,,0.17,weatherlink.com 1.10,2013-02-20 02:29:00,
2013-02-19 21:44:00,45.2,23.0,29.99,WNW,282,0.0,5.0,41,0.00,,,0.17,weatherlink.com 1.10,2013-02-20 02:44:00,
2013-02-19 21:59:00,46.1,29.0,29.99,NW,310,0.0,1.0,51,0.00,,,0.17,weatherlink.com 1.10,2013-02-20 02:59:00,
2013-02-19 22:14:00,42.4,25.0,29.99,WNW,297,0.0,0.0,50,0.00,,,0.17,weatherlink.com 1.10,2013-02-20 03:14:00,
2013-02-19 22:29:00,41.0,23.0,29.99,West,281,0.0,1.0,50,0.00,,,0.17,weatherlink.com 1.10,2013-02-20 03:29:00,
2013-02-19 22:44:00,40.3,24.0,30.00,WNW,288,0.0,1.0,53,0.00,,,0.17,weatherlink.com 1.10,2013-02-20 03:44:00,
2013-02-19 22:59:00,39.7,24.0,29.99,West,274,1.0,2.0,53,0.00,,,0.17,weatherlink.com 1.10,2013-02-20 03:59:00,
2013-02-19 23:15:00,40.7,21.0,30.00,West,264,0.0,5.0,45,0.00,,,0.17,weatherlink.com 1.10,2013-02-20 04:15:00,
2013-02-19 23:30:00,40.2,19.0,30.01,NW,307,0.0,3.0,43,0.00,,,0.17,weatherlink.com 1.10,2013-02-20 04:30:00,
2013-02-19 23:45:00,40.4,19.0,30.01,WNW,284,0.0,3.0,43,0.00,,,0.17,weatherlink.com 1.10,2013-02-20 04:45:00,